Soesterberg, Nederland

7:20 PM CEST op 23 augustus 2014 (GMT +0200)
Weerstation Overhees | Change Station
CLOSE
Current Station
Persoonlijk weerstation
Location: Soest, UTRECHT
Geometrische hoogte: 10 ft
Nabije weerstations
Actief advies: Thunderstorms nederlands:

Hoogte 10 ft 52.17 °N, 5.28 °E | Updated 10 seconds ago

Partly Cloudy
Gedeeltelijk bewolkt
59.5 °F
Voelt als 59.5 °F
N
2.1
Wind Variabel Wind van west
Gusts 7.6 mijl/u

Vandaag
Hoog -- | Laag -- °F
--% Kans op neerslag
Gisteren
Hoog -- | Laag -- °F
Precip. -- inches
6:35 AM 8:46 PM
Afnemende halvemaan, 3% visible
Druk 29.92 inches
Zicht 6.2 mijlen
Wolken Gering 3600 ft
Dauwpunt 49 °F
Vochtigheid 69%
Neerslag 0.20 inches
Dikte sneeuw Niet beschikbaar.
UV 1 van de 12
Pollen Niet beschikbaar.
Luchtkwaliteit Niet beschikbaar.
Flu Activity Niet beschikbaar.
METAR EHAM 231655Z 28014KT 9999 FEW036 15/07 Q1013 NOSIG

More Conditions Fewer Conditions

Druk 29.92 inches
Zicht 6.2 mijlen
Wolken Gering 3600 ft
Dauwpunt 49 °F
Vochtigheid 69%
Neerslag 0.20 inches
Dikte sneeuw Niet beschikbaar.
UV 1 van de 12
Pollen Niet beschikbaar.
Luchtkwaliteit Niet beschikbaar.
Flu Activity Niet beschikbaar.
METAR EHAM 231655Z 28014KT 9999 FEW036 15/07 Q1013 NOSIG

More Conditions Fewer Conditions

10-Day Weather Forecast

Almanac

Astronomie

Aug. 23, 2014 Opkomst Ondergang
Werkelijke tijd 6:35 AM CEST 8:46 PM CEST
Burgerlijke schemering 5:58 AM CEST 9:23 PM CEST
Nautische schemering 5:12 AM CEST 10:09 PM CEST
Astronomische schemering 4:18 AM CEST 11:02 PM CEST
Maan 4:31 AM CEST 7:24 PM CEST
Golflengte van het zichtbare licht 15h 24m
Daglengte
14h 11m
Tomorrow will be 3m 49s shorter.
Afnemende halvemaan, 3% of the Moon is Illuminated
Vandaag
Afnemende halvemaan
aug 25
Nieuw
sep 2
Eerste kwartier
sep 8
Volle maan
sep 15
Laatste kwartier

Extremen vandaag

Country Highs Country Lows

Community

WunderPhotos

Upload Photos

1,746,534 foto’s ge-upload!

WunderBlogs® & News

By Dr. Jeff Masters
Director of Meteorology, Weather Underground
By Kari Strenfel
Meteorologist, Weather Underground
By Christopher C. Burt
Weather Historian, Weather Underground
August 23, 2014
August 23, 2014
August 23, 2014

Nearby

Luchtkwaliteit

Not available.

Dikte sneeuw

Not available.

Aardbevingen

Stad Distance Mag. Time & Date
No recent earthquake activity has been reported nearby.
Minimum magnitude displayed is 2.5.

Watertemperatuur langs de kust

Plaats Temperatuur
Geen meldingen van stations

Nabije weerstations